Atlantic Horizon — C6XI2 — position and weather

sailwx.info

Track history (hours):
 
Tides and Currents Weather Stations Pressure Air Temp Water Temp Dewpoint Dewpoint Depression Visibility Wind Speed Wind Dir Waves Ship Positions

Atlantic Horizon

Last reported at 2015-Aug-21 05:18 UTC. Time now 2015-Sep-02 21:52 UTC.
Position N 31°56' E 120°13'.
Warning: this ship's position is 12 days out of date.

Length 225 m; draft 6.9 m.

Type: Cargo ship. MMSI: 311010300.

Date/timePositionNaut miles runAvg speedWind from/ knotsBaromVisibWave heightAir tempDewpointWater temp
2015-Aug-21 05:18N 31°56' E 120°13'4 5.2
2015-Aug-21 04:28N 31°58' E 120°18'1010.2
2015-Aug-21 03:31N 32°04' E 120°27'8 8.5
2015-Aug-21 02:34N 32°01' E 120°36'17 8.3
2015-Aug-21 00:33N 31°53' E 120°53'9 9.1
2015-Aug-20 23:34N 31°47' E 121°00'1111.3
2015-Aug-20 22:33N 31°40' E 121°12'8 8.2
2015-Aug-20 21:31N 31°35' E 121°20'0 0.2
2015-Aug-20 20:31N 31°36' E 121°20'0 0.0
2015-Aug-20 19:31N 31°36' E 121°20'0 0.1
2015-Aug-20 18:31N 31°36' E 121°20'0 0.2
2015-Aug-20 17:28N 31°35' E 121°20'0 0.0
2015-Aug-20 16:31N 31°35' E 121°20'0 0.0
2015-Aug-20 15:31N 31°35' E 121°20'0 0.0
2015-Aug-20 14:31N 31°35' E 121°20'0 0.0
2015-Aug-20 13:31N 31°35' E 121°20'0 0.0
2015-Aug-20 12:22N 31°35' E 121°20'0 0.0
2015-Aug-20 11:30N 31°35' E 121°20'0 0.1
2015-Aug-20 10:33N 31°35' E 121°20'7 6.6
2015-Aug-20 09:33N 31°30' E 121°25'9 8.7
2015-Aug-20 08:33N 31°25' E 121°32'8 8.0
2015-Aug-20 07:33N 31°21' E 121°40'9 9.3
2015-Aug-20 06:33N 31°14' E 121°48'1312.5
2015-Aug-20 05:33N 31°06' E 121°59'1212.1
2015-Aug-20 04:33N 31°03' E 122°13'1110.8
2015-Aug-20 03:33N 31°01' E 122°25'11 9.7
2015-Aug-20 02:26N 31°00' E 122°38'2 0.2
2015-Aug-19 16:29N 31°02' E 122°39'0 0.1
2015-Aug-19 15:32N 31°02' E 122°39'0 0.1
2015-Aug-19 14:32N 31°02' E 122°39'2 1.6
2015-Aug-19 13:33N 31°03' E 122°40'34212.6
2015-Aug-18 10:28N 36°46' E 122°48'1112.6
2015-Aug-18 09:33N 36°57' E 122°47'1312.8
2015-Aug-18 08:34N 37°10' E 122°47'1414.0
2015-Aug-18 07:32N 37°24' E 122°47'1313.3
2015-Aug-18 06:33N 37°32' E 122°34'1414.0
2015-Aug-18 05:33N 37°37' E 122°18'1313.3
2015-Aug-18 04:33N 37°41' E 122°02'512.9
2015-Aug-18 04:11N 37°40' E 121°56'114.0
2015-Aug-18 04:08N 37°40' E 121°55'712.9
2015-Aug-18 03:33N 37°40' E 121°46'1212.4
2015-Aug-18 02:33N 37°38' E 121°30'7 6.6
2015-Aug-18 01:33N 37°34' E 121°23'0 0.0
2015-Aug-18 00:33N 37°34' E 121°23'0 0.0
2015-Aug-17 23:33N 37°34' E 121°23'0 0.0
2015-Aug-17 22:33N 37°34' E 121°23'0 0.0
2015-Aug-17 21:33N 37°34' E 121°23'0 0.0
2015-Aug-17 20:33N 37°34' E 121°23'0 0.0
2015-Aug-17 19:33N 37°34' E 121°23'0 0.0
2015-Aug-17 18:30N 37°34' E 121°23'0 0.0
2015-Aug-17 17:30N 37°34' E 121°23'0 0.0
2015-Aug-17 16:33N 37°34' E 121°23'0 0.0
2015-Aug-17 15:33N 37°34' E 121°23'0 0.0
2015-Aug-17 14:33N 37°34' E 121°23'0 0.0
2015-Aug-17 13:33N 37°34' E 121°23'0 0.0
2015-Aug-17 12:33N 37°34' E 121°23'0 0.0
2015-Aug-17 11:30N 37°34' E 121°23'0 0.0
2015-Aug-17 10:33N 37°34' E 121°23'0 0.0
2015-Aug-17 09:33N 37°34' E 121°23'0 0.0
2015-Aug-17 08:33N 37°34' E 121°23'0 0.0
2015-Aug-17 07:33N 37°34' E 121°23'0 0.0
2015-Aug-17 06:33N 37°34' E 121°23'0 0.0
2015-Aug-17 05:33N 37°34' E 121°23'0 0.0
2015-Aug-17 04:33N 37°34' E 121°23'0 0.0
2015-Aug-17 03:33N 37°34' E 121°23'0 0.0
2015-Aug-17 02:33N 37°34' E 121°23'0 0.0
2015-Aug-17 01:33N 37°34' E 121°23'0 0.0
2015-Aug-17 00:33N 37°34' E 121°23'0 0.0
2015-Aug-16 23:33N 37°34' E 121°23'0 0.0
2015-Aug-16 22:33N 37°34' E 121°23'0 0.0
2015-Aug-16 21:33N 37°34' E 121°23'0 0.0
2015-Aug-16 20:33N 37°34' E 121°23'0 0.0
2015-Aug-16 19:33N 37°34' E 121°23'0 0.0
2015-Aug-16 18:30N 37°34' E 121°23'0 0.0
2015-Aug-16 17:30N 37°34' E 121°23'0 0.0
2015-Aug-16 16:33N 37°34' E 121°23'0 0.0
2015-Aug-16 15:33N 37°34' E 121°23'0 0.0
2015-Aug-16 14:33N 37°34' E 121°23'0 0.0
2015-Aug-16 13:33N 37°34' E 121°23'0 0.0
2015-Aug-16 12:33N 37°34' E 121°23'0 0.0
2015-Aug-16 11:30N 37°34' E 121°23'0 0.0
2015-Aug-16 10:30N 37°34' E 121°23'0 0.0
2015-Aug-16 09:33N 37°34' E 121°23'0 0.0
2015-Aug-16 08:33N 37°34' E 121°23'0 0.0
2015-Aug-16 07:33N 37°34' E 121°23'0 0.0
2015-Aug-16 06:33N 37°34' E 121°23'0 0.0
2015-Aug-16 05:33N 37°34' E 121°23'0 0.0
2015-Aug-16 04:33N 37°34' E 121°23'0 0.0
2015-Aug-16 03:33N 37°34' E 121°23'0 0.0
2015-Aug-16 02:33N 37°34' E 121°23'0 0.0
2015-Aug-16 01:33N 37°34' E 121°23'0 0.0
2015-Aug-16 00:33N 37°34' E 121°23'0 0.0
2015-Aug-15 23:28N 37°34' E 121°23'0 0.0
2015-Aug-15 22:31N 37°34' E 121°23'0 0.0
2015-Aug-15 21:31N 37°34' E 121°23'0 0.0
2015-Aug-15 20:28N 37°34' E 121°23'0 0.1
2015-Aug-15 19:25N 37°34' E 121°23'0 0.0
2015-Aug-15 18:31N 37°34' E 121°23'0 0.0
2015-Aug-15 17:31N 37°34' E 121°23'0 0.0
2015-Aug-15 16:31N 37°34' E 121°23'0 0.0
2015-Aug-15 15:31N 37°34' E 121°23'0 0.0
2015-Aug-15 14:31N 37°34' E 121°23'0 0.0
2015-Aug-15 13:31N 37°34' E 121°23'0 0.0
2015-Aug-15 12:31N 37°34' E 121°23'0 0.0
2015-Aug-15 11:31N 37°34' E 121°23'0 0.0
2015-Aug-15 10:31N 37°34' E 121°23'0 0.0
2015-Aug-15 09:31N 37°34' E 121°23'0 0.0
2015-Aug-15 08:31N 37°34' E 121°23'0 0.0
2015-Aug-15 07:31N 37°34' E 121°23'0 0.0
2015-Aug-15 06:31N 37°34' E 121°23'0 0.0
2015-Aug-15 05:28N 37°34' E 121°23'0 0.0
2015-Aug-15 04:31N 37°34' E 121°23'0 0.0
2015-Aug-15 03:31N 37°34' E 121°23'0 0.0
2015-Aug-15 02:31N 37°34' E 121°23'0 0.0
2015-Aug-15 01:31N 37°34' E 121°23'0 0.0
2015-Aug-15 00:31N 37°34' E 121°23'0 0.0
2015-Aug-14 23:31N 37°34' E 121°23'0 0.0
2015-Aug-14 22:31N 37°34' E 121°23'0 0.0
2015-Aug-14 21:31N 37°34' E 121°23'0 0.0
2015-Aug-14 20:31N 37°34' E 121°23'0 0.0
2015-Aug-14 19:28N 37°34' E 121°23'0 0.0
2015-Aug-14 18:31N 37°34' E 121°23'0 0.0
2015-Aug-14 17:31N 37°34' E 121°23'0 0.0
2015-Aug-14 16:31N 37°34' E 121°23'0 0.0
2015-Aug-14 15:31N 37°34' E 121°23'0 0.0
2015-Aug-14 14:28N 37°34' E 121°23'0 0.0
2015-Aug-14 13:28N 37°34' E 121°23'0 0.0
2015-Aug-14 12:31N 37°34' E 121°23'0 0.0
2015-Aug-14 11:25N 37°34' E 121°23'0 0.0
2015-Aug-14 10:31N 37°34' E 121°23'0 0.0
2015-Aug-14 09:31N 37°34' E 121°23'0 0.0
2015-Aug-14 08:31N 37°34' E 121°23'0 0.0
2015-Aug-14 07:25N 37°34' E 121°23'0 0.0
2015-Aug-14 06:31N 37°34' E 121°23'0 0.0
2015-Aug-14 05:31N 37°34' E 121°23'0 0.0
2015-Aug-14 04:31N 37°34' E 121°23'0 0.3
2015-Aug-14 03:33N 37°34' E 121°23'6 6.4
2015-Aug-14 02:33N 37°38' E 121°30'10 9.9
2015-Aug-14 01:33N 37°41' E 121°42'1111.3
2015-Aug-14 00:33N 37°41' E 121°56'1111.1
2015-Aug-13 23:33N 37°40' E 122°10'1212.0
2015-Aug-13 22:33N 37°38' E 122°25'1212.2
2015-Aug-13 21:33N 37°36' E 122°40'1211.8
2015-Aug-13 20:33N 37°28' E 122°51'1211.8
2015-Aug-13 19:33N 37°16' E 122°52'1211.5
2015-Aug-13 18:33N 37°05' E 122°55'1111.3
2015-Aug-13 17:33N 36°54' E 122°60'1111.1
2015-Aug-13 16:33N 36°43' E 123°03'1111.1
2015-Aug-13 15:30N 36°32' E 123°06'1111.1
2015-Aug-13 14:31N 36°22' E 123°11'1111.4
2015-Aug-13 13:33N 36°11' E 123°14'1211.4
2015-Aug-13 12:29N 35°59' E 123°17'1111.2
2015-Aug-13 11:29N 35°48' E 123°21'  
Track history (hours):
 
Tides and Currents Weather Stations Pressure Air Temp Water Temp Dewpoint Dewpoint Depression Visibility Wind Speed Wind Dir Waves Ship Positions

Atlantic Horizon

Last reported at 2015-Aug-21 05:18 UTC. Time now 2015-Sep-02 21:52 UTC.
Position N 31°56' E 120°13'.
Warning: this ship's position is 12 days out of date.

Length 225 m; draft 6.9 m.

Type: Cargo ship. MMSI: 311010300.

Date/timePositionNaut miles runAvg speedWind from/ knotsBaromVisibWave heightAir tempDewpointWater temp
2015-Aug-21 05:18N 31°56' E 120°13'4 5.2
2015-Aug-21 04:28N 31°58' E 120°18'1010.2
2015-Aug-21 03:31N 32°04' E 120°27'8 8.5
2015-Aug-21 02:34N 32°01' E 120°36'17 8.3
2015-Aug-21 00:33N 31°53' E 120°53'9 9.1
2015-Aug-20 23:34N 31°47' E 121°00'1111.3
2015-Aug-20 22:33N 31°40' E 121°12'8 8.2
2015-Aug-20 21:31N 31°35' E 121°20'0 0.2
2015-Aug-20 20:31N 31°36' E 121°20'0 0.0
2015-Aug-20 19:31N 31°36' E 121°20'0 0.1
2015-Aug-20 18:31N 31°36' E 121°20'0 0.2
2015-Aug-20 17:28N 31°35' E 121°20'0 0.0
2015-Aug-20 16:31N 31°35' E 121°20'0 0.0
2015-Aug-20 15:31N 31°35' E 121°20'0 0.0
2015-Aug-20 14:31N 31°35' E 121°20'0 0.0
2015-Aug-20 13:31N 31°35' E 121°20'0 0.0
2015-Aug-20 12:22N 31°35' E 121°20'0 0.0
2015-Aug-20 11:30N 31°35' E 121°20'0 0.1
2015-Aug-20 10:33N 31°35' E 121°20'7 6.6
2015-Aug-20 09:33N 31°30' E 121°25'9 8.7
2015-Aug-20 08:33N 31°25' E 121°32'8 8.0
2015-Aug-20 07:33N 31°21' E 121°40'9 9.3
2015-Aug-20 06:33N 31°14' E 121°48'1312.5
2015-Aug-20 05:33N 31°06' E 121°59'1212.1
2015-Aug-20 04:33N 31°03' E 122°13'1110.8
2015-Aug-20 03:33N 31°01' E 122°25'11 9.7
2015-Aug-20 02:26N 31°00' E 122°38'2 0.2
2015-Aug-19 16:29N 31°02' E 122°39'0 0.1
2015-Aug-19 15:32N 31°02' E 122°39'0 0.1
2015-Aug-19 14:32N 31°02' E 122°39'2 1.6
2015-Aug-19 13:33N 31°03' E 122°40'34212.6
2015-Aug-18 10:28N 36°46' E 122°48'1112.6
2015-Aug-18 09:33N 36°57' E 122°47'1312.8
2015-Aug-18 08:34N 37°10' E 122°47'1414.0
2015-Aug-18 07:32N 37°24' E 122°47'1313.3
2015-Aug-18 06:33N 37°32' E 122°34'1414.0
2015-Aug-18 05:33N 37°37' E 122°18'1313.3
2015-Aug-18 04:33N 37°41' E 122°02'512.9
2015-Aug-18 04:11N 37°40' E 121°56'114.0
2015-Aug-18 04:08N 37°40' E 121°55'712.9
2015-Aug-18 03:33N 37°40' E 121°46'1212.4
2015-Aug-18 02:33N 37°38' E 121°30'7 6.6
2015-Aug-18 01:33N 37°34' E 121°23'0 0.0
2015-Aug-18 00:33N 37°34' E 121°23'0 0.0
2015-Aug-17 23:33N 37°34' E 121°23'0 0.0
2015-Aug-17 22:33N 37°34' E 121°23'0 0.0
2015-Aug-17 21:33N 37°34' E 121°23'0 0.0
2015-Aug-17 20:33N 37°34' E 121°23'0 0.0
2015-Aug-17 19:33N 37°34' E 121°23'0 0.0
2015-Aug-17 18:30N 37°34' E 121°23'0 0.0
2015-Aug-17 17:30N 37°34' E 121°23'0 0.0
2015-Aug-17 16:33N 37°34' E 121°23'0 0.0
2015-Aug-17 15:33N 37°34' E 121°23'0 0.0
2015-Aug-17 14:33N 37°34' E 121°23'0 0.0
2015-Aug-17 13:33N 37°34' E 121°23'0 0.0
2015-Aug-17 12:33N 37°34' E 121°23'0 0.0
2015-Aug-17 11:30N 37°34' E 121°23'0 0.0
2015-Aug-17 10:33N 37°34' E 121°23'0 0.0
2015-Aug-17 09:33N 37°34' E 121°23'0 0.0
2015-Aug-17 08:33N 37°34' E 121°23'0 0.0
2015-Aug-17 07:33N 37°34' E 121°23'0 0.0
2015-Aug-17 06:33N 37°34' E 121°23'0 0.0
2015-Aug-17 05:33N 37°34' E 121°23'0 0.0
2015-Aug-17 04:33N 37°34' E 121°23'0 0.0
2015-Aug-17 03:33N 37°34' E 121°23'0 0.0
2015-Aug-17 02:33N 37°34' E 121°23'0 0.0
2015-Aug-17 01:33N 37°34' E 121°23'0 0.0
2015-Aug-17 00:33N 37°34' E 121°23'0 0.0
2015-Aug-16 23:33N 37°34' E 121°23'0 0.0
2015-Aug-16 22:33N 37°34' E 121°23'0 0.0
2015-Aug-16 21:33N 37°34' E 121°23'0 0.0
2015-Aug-16 20:33N 37°34' E 121°23'0 0.0
2015-Aug-16 19:33N 37°34' E 121°23'0 0.0
2015-Aug-16 18:30N 37°34' E 121°23'0 0.0
2015-Aug-16 17:30N 37°34' E 121°23'0 0.0
2015-Aug-16 16:33N 37°34' E 121°23'0 0.0
2015-Aug-16 15:33N 37°34' E 121°23'0 0.0
2015-Aug-16 14:33N 37°34' E 121°23'0 0.0
2015-Aug-16 13:33N 37°34' E 121°23'0 0.0
2015-Aug-16 12:33N 37°34' E 121°23'0 0.0
2015-Aug-16 11:30N 37°34' E 121°23'0 0.0
2015-Aug-16 10:30N 37°34' E 121°23'0 0.0
2015-Aug-16 09:33N 37°34' E 121°23'0 0.0
2015-Aug-16 08:33N 37°34' E 121°23'0 0.0
2015-Aug-16 07:33N 37°34' E 121°23'0 0.0
2015-Aug-16 06:33N 37°34' E 121°23'0 0.0
2015-Aug-16 05:33N 37°34' E 121°23'0 0.0
2015-Aug-16 04:33N 37°34' E 121°23'0 0.0
2015-Aug-16 03:33N 37°34' E 121°23'0 0.0
2015-Aug-16 02:33N 37°34' E 121°23'0 0.0
2015-Aug-16 01:33N 37°34' E 121°23'0 0.0
2015-Aug-16 00:33N 37°34' E 121°23'0 0.0
2015-Aug-15 23:28N 37°34' E 121°23'0 0.0
2015-Aug-15 22:31N 37°34' E 121°23'0 0.0
2015-Aug-15 21:31N 37°34' E 121°23'0 0.0
2015-Aug-15 20:28N 37°34' E 121°23'0 0.1
2015-Aug-15 19:25N 37°34' E 121°23'0 0.0
2015-Aug-15 18:31N 37°34' E 121°23'0 0.0
2015-Aug-15 17:31N 37°34' E 121°23'0 0.0
2015-Aug-15 16:31N 37°34' E 121°23'0 0.0
2015-Aug-15 15:31N 37°34' E 121°23'0 0.0
2015-Aug-15 14:31N 37°34' E 121°23'0 0.0
2015-Aug-15 13:31N 37°34' E 121°23'0 0.0
2015-Aug-15 12:31N 37°34' E 121°23'0 0.0
2015-Aug-15 11:31N 37°34' E 121°23'0 0.0
2015-Aug-15 10:31N 37°34' E 121°23'0 0.0
2015-Aug-15 09:31N 37°34' E 121°23'0 0.0
2015-Aug-15 08:31N 37°34' E 121°23'0 0.0
2015-Aug-15 07:31N 37°34' E 121°23'0 0.0
2015-Aug-15 06:31N 37°34' E 121°23'0 0.0
2015-Aug-15 05:28N 37°34' E 121°23'0 0.0
2015-Aug-15 04:31N 37°34' E 121°23'0 0.0
2015-Aug-15 03:31N 37°34' E 121°23'0 0.0
2015-Aug-15 02:31N 37°34' E 121°23'0 0.0
2015-Aug-15 01:31N 37°34' E 121°23'0 0.0
2015-Aug-15 00:31N 37°34' E 121°23'0 0.0
2015-Aug-14 23:31N 37°34' E 121°23'0 0.0
2015-Aug-14 22:31N 37°34' E 121°23'0 0.0
2015-Aug-14 21:31N 37°34' E 121°23'0 0.0
2015-Aug-14 20:31N 37°34' E 121°23'0 0.0
2015-Aug-14 19:28N 37°34' E 121°23'0 0.0
2015-Aug-14 18:31N 37°34' E 121°23'0 0.0
2015-Aug-14 17:31N 37°34' E 121°23'0 0.0
2015-Aug-14 16:31N 37°34' E 121°23'0 0.0
2015-Aug-14 15:31N 37°34' E 121°23'0 0.0
2015-Aug-14 14:28N 37°34' E 121°23'0 0.0
2015-Aug-14 13:28N 37°34' E 121°23'0 0.0
2015-Aug-14 12:31N 37°34' E 121°23'0 0.0
2015-Aug-14 11:25N 37°34' E 121°23'0 0.0
2015-Aug-14 10:31N 37°34' E 121°23'0 0.0
2015-Aug-14 09:31N 37°34' E 121°23'0 0.0
2015-Aug-14 08:31N 37°34' E 121°23'0 0.0
2015-Aug-14 07:25N 37°34' E 121°23'0 0.0
2015-Aug-14 06:31N 37°34' E 121°23'0 0.0
2015-Aug-14 05:31N 37°34' E 121°23'0 0.0
2015-Aug-14 04:31N 37°34' E 121°23'0 0.3
2015-Aug-14 03:33N 37°34' E 121°23'6 6.4
2015-Aug-14 02:33N 37°38' E 121°30'10 9.9
2015-Aug-14 01:33N 37°41' E 121°42'1111.3
2015-Aug-14 00:33N 37°41' E 121°56'1111.1
2015-Aug-13 23:33N 37°40' E 122°10'1212.0
2015-Aug-13 22:33N 37°38' E 122°25'1212.2
2015-Aug-13 21:33N 37°36' E 122°40'1211.8
2015-Aug-13 20:33N 37°28' E 122°51'1211.8
2015-Aug-13 19:33N 37°16' E 122°52'1211.5
2015-Aug-13 18:33N 37°05' E 122°55'1111.3
2015-Aug-13 17:33N 36°54' E 122°60'1111.1
2015-Aug-13 16:33N 36°43' E 123°03'1111.1
2015-Aug-13 15:30N 36°32' E 123°06'1111.1
2015-Aug-13 14:31N 36°22' E 123°11'1111.4
2015-Aug-13 13:33N 36°11' E 123°14'1211.4
2015-Aug-13 12:29N 35°59' E 123°17'1111.2
2015-Aug-13 11:29N 35°48' E 123°21'  

Dump ship's entire track history